createdAt,value
2023-01-19T00:00:51.926Z,0.40
2023-01-19T00:03:18.730Z,0.35
2023-01-19T00:05:45.673Z,0.40
2023-01-19T00:08:15.949Z,0.40
2023-01-19T00:10:47.778Z,0.30
2023-01-19T00:13:15.460Z,0.40
2023-01-19T00:15:43.083Z,0.43
2023-01-19T00:18:10.895Z,0.40
2023-01-19T00:20:38.968Z,0.40
2023-01-19T00:23:07.659Z,0.30
2023-01-19T00:25:34.683Z,0.50
2023-01-19T00:28:01.887Z,0.40
2023-01-19T00:30:29.045Z,0.40
2023-01-19T00:32:55.895Z,0.40
2023-01-19T00:35:22.538Z,0.40
2023-01-19T00:37:49.169Z,0.40
2023-01-19T00:40:16.112Z,0.50
2023-01-19T00:42:48.406Z,0.40
2023-01-19T00:45:20.971Z,0.30
2023-01-19T00:47:50.236Z,0.30
2023-01-19T00:50:16.988Z,0.40
2023-01-19T00:52:44.744Z,0.40
2023-01-19T00:55:13.375Z,0.40
2023-01-19T00:57:40.855Z,0.30
2023-01-19T01:00:11.776Z,0.43
2023-01-19T01:02:40.072Z,0.30
2023-01-19T01:05:07.985Z,0.40
2023-01-19T01:07:40.658Z,0.40
2023-01-19T01:10:28.588Z,0.30
2023-01-19T01:13:20.383Z,0.40
2023-01-19T01:15:43.234Z,0.30
2023-01-19T01:18:09.873Z,0.40
2023-01-19T01:20:37.540Z,0.40
2023-01-19T01:23:04.631Z,0.40
2023-01-19T01:25:34.161Z,0.30
2023-01-19T01:28:00.902Z,0.40
2023-01-19T01:30:27.634Z,0.43
2023-01-19T01:32:54.772Z,0.40
2023-01-19T01:35:21.465Z,0.30
2023-01-19T01:37:48.111Z,0.30
2023-01-19T01:40:18.546Z,0.40
2023-01-19T01:42:45.559Z,0.30
2023-01-19T01:45:29.514Z,0.40
2023-01-19T01:48:02.290Z,0.40
2023-01-19T01:50:32.829Z,0.30
2023-01-19T01:53:07.976Z,0.30
2023-01-19T01:55:49.116Z,0.30
2023-01-19T01:58:16.890Z,0.40
2023-01-19T02:01:02.229Z,0.40
2023-01-19T02:03:29.434Z,0.45
2023-01-19T02:05:59.917Z,0.25
2023-01-19T02:08:58.190Z,0.30
2023-01-19T02:11:44.060Z,0.40
2023-01-19T02:14:10.743Z,0.35
2023-01-19T02:16:37.893Z,0.40
2023-01-19T02:19:08.852Z,0.30
2023-01-19T02:21:43.112Z,0.30
2023-01-19T02:24:11.026Z,0.40
2023-01-19T02:26:44.493Z,0.40
2023-01-19T02:29:14.376Z,0.30
2023-01-19T02:31:41.653Z,0.30
2023-01-19T02:34:11.175Z,0.40
2023-01-19T02:36:59.112Z,0.30
2023-01-19T02:39:36.798Z,0.30
2023-01-19T02:42:10.741Z,0.40
2023-01-19T02:44:39.392Z,0.50
2023-01-19T02:47:06.199Z,0.40
2023-01-19T02:49:32.917Z,0.40
2023-01-19T02:52:01.232Z,0.50
2023-01-19T02:54:57.289Z,0.30
2023-01-19T02:57:50.309Z,0.40
2023-01-19T03:00:56.898Z,0.30
2023-01-19T03:03:35.835Z,0.40
2023-01-19T03:06:14.618Z,0.40
2023-01-19T03:08:47.740Z,0.40
2023-01-19T03:11:15.233Z,0.30
2023-01-19T03:13:55.660Z,0.30
2023-01-19T03:16:48.647Z,0.30
2023-01-19T03:19:21.738Z,0.30
2023-01-19T03:21:54.696Z,0.30
2023-01-19T03:24:24.356Z,0.25
2023-01-19T03:26:58.868Z,0.30
2023-01-19T03:29:30.232Z,0.55
2023-01-19T03:32:01.236Z,0.30
2023-01-19T03:34:29.051Z,0.40
2023-01-19T03:37:00.530Z,0.30
2023-01-19T03:39:28.259Z,0.40
2023-01-19T03:42:03.123Z,0.40
2023-01-19T03:44:32.398Z,0.40
2023-01-19T03:46:59.823Z,0.40
2023-01-19T03:49:27.208Z,0.30
2023-01-19T03:51:58.938Z,0.40
2023-01-19T03:54:26.634Z,0.32
2023-01-19T03:56:53.333Z,0.40
2023-01-19T03:59:21.829Z,0.40
2023-01-19T04:01:49.112Z,0.40
2023-01-19T04:04:16.341Z,0.30
2023-01-19T04:06:43.751Z,0.40
2023-01-19T04:09:10.465Z,0.30
2023-01-19T04:11:37.251Z,0.30
2023-01-19T04:14:04.541Z,0.40
2023-01-19T04:16:31.143Z,0.30
2023-01-19T04:18:57.877Z,0.30
2023-01-19T04:21:24.625Z,0.40
2023-01-19T04:23:53.216Z,0.30
2023-01-19T04:26:19.996Z,0.30
2023-01-19T04:28:46.669Z,0.30
2023-01-19T04:31:14.619Z,0.20
2023-01-19T04:33:41.432Z,0.30
2023-01-19T04:36:08.793Z,0.30
2023-01-19T04:38:36.090Z,0.45
2023-01-19T04:41:02.903Z,0.30
2023-01-19T04:43:29.530Z,0.30
2023-01-19T04:45:56.243Z,0.30
2023-01-19T04:48:23.087Z,0.30
2023-01-19T04:50:52.483Z,0.40
2023-01-19T04:53:19.495Z,0.30
2023-01-19T04:55:46.913Z,0.30
2023-01-19T04:58:13.612Z,0.40
2023-01-19T05:00:40.582Z,0.40
2023-01-19T05:03:07.603Z,0.40
2023-01-19T05:05:34.633Z,0.38
2023-01-19T05:08:01.409Z,0.30
2023-01-19T05:10:28.234Z,0.40
2023-01-19T05:12:55.300Z,0.30
2023-01-19T05:15:22.394Z,0.30
2023-01-19T05:17:49.413Z,0.30
2023-01-19T05:20:17.567Z,0.32
2023-01-19T05:22:49.812Z,0.30
2023-01-19T05:25:17.068Z,0.30
2023-01-19T05:27:44.786Z,0.40
2023-01-19T05:30:13.432Z,0.32
2023-01-19T05:32:40.290Z,0.32
2023-01-19T05:35:07.549Z,0.30
2023-01-19T05:37:34.338Z,0.30
2023-01-19T05:40:01.041Z,0.45
2023-01-19T05:42:27.800Z,0.30
2023-01-19T05:44:54.428Z,0.30
2023-01-19T05:47:21.112Z,0.30
2023-01-19T05:49:47.961Z,0.30
2023-01-19T05:52:15.146Z,0.40
2023-01-19T05:54:41.901Z,0.30
2023-01-19T05:57:08.561Z,0.40
2023-01-19T05:59:35.452Z,0.30
2023-01-19T06:02:02.260Z,0.40
2023-01-19T06:04:28.946Z,0.40
2023-01-19T06:06:55.742Z,0.30
2023-01-19T06:09:22.392Z,0.35
2023-01-19T06:11:49.252Z,0.30
2023-01-19T06:14:15.980Z,0.30
2023-01-19T06:16:42.727Z,0.30
2023-01-19T06:19:09.575Z,0.40
2023-01-19T06:21:36.292Z,0.40
2023-01-19T06:24:03.606Z,0.30
2023-01-19T06:26:30.262Z,0.30
2023-01-19T06:28:57.001Z,0.30
2023-01-19T06:31:23.796Z,0.30
2023-01-19T06:33:50.449Z,0.30
2023-01-19T06:36:17.312Z,0.30
2023-01-19T06:38:44.469Z,0.30
2023-01-19T06:41:11.092Z,0.40
2023-01-19T06:43:37.859Z,0.30
2023-01-19T06:46:04.915Z,0.30
2023-01-19T06:48:31.714Z,0.40
2023-01-19T06:50:59.677Z,0.30
2023-01-19T06:53:28.135Z,0.30
2023-01-19T06:56:02.173Z,0.40
2023-01-19T06:58:31.783Z,0.30
2023-01-19T07:01:04.372Z,0.38
2023-01-19T07:03:31.860Z,0.23
2023-01-19T07:06:00.932Z,0.30
2023-01-19T07:08:28.832Z,0.30
2023-01-19T07:11:25.619Z,0.40
2023-01-19T07:13:54.864Z,0.32
2023-01-19T07:16:21.595Z,0.20
2023-01-19T07:18:48.430Z,0.40
2023-01-19T07:21:15.576Z,0.30
2023-01-19T07:23:43.527Z,0.30
2023-01-19T07:26:10.719Z,0.40
2023-01-19T07:28:37.439Z,0.40
2023-01-19T07:31:04.352Z,0.32
2023-01-19T07:33:31.189Z,0.40
2023-01-19T07:35:58.424Z,0.30
2023-01-19T07:38:25.542Z,0.30
2023-01-19T07:40:52.253Z,0.38
2023-01-19T07:43:18.957Z,0.30
2023-01-19T07:45:45.797Z,0.30
2023-01-19T07:48:12.630Z,0.30
2023-01-19T07:50:39.207Z,0.30
2023-01-19T07:53:07.447Z,0.30
2023-01-19T07:55:34.271Z,0.30
2023-01-19T07:58:01.446Z,0.30
2023-01-19T08:00:28.263Z,0.30
2023-01-19T08:03:00.764Z,0.40
2023-01-19T08:05:29.275Z,0.20
2023-01-19T08:07:57.770Z,0.30
2023-01-19T08:10:26.792Z,0.28
2023-01-19T08:12:57.880Z,0.30
2023-01-19T08:15:25.101Z,0.30
2023-01-19T08:18:00.285Z,0.30
2023-01-19T08:20:28.577Z,0.30
2023-01-19T08:23:03.110Z,0.30
2023-01-19T08:25:38.759Z,0.30
2023-01-19T08:28:07.019Z,0.20
2023-01-19T08:30:34.105Z,0.30
2023-01-19T08:33:04.508Z,0.30
2023-01-19T08:35:32.159Z,0.28
2023-01-19T08:38:01.588Z,0.40
2023-01-19T08:40:29.837Z,0.38
2023-01-19T08:43:07.180Z,0.38
2023-01-19T08:45:42.011Z,0.30
2023-01-19T08:48:10.039Z,0.30
2023-01-19T08:50:36.738Z,0.30
2023-01-19T08:53:06.972Z,0.30
2023-01-19T08:55:35.820Z,0.30
2023-01-19T08:58:05.978Z,0.32
2023-01-19T09:00:34.384Z,0.30
2023-01-19T09:03:03.682Z,0.30
2023-01-19T09:05:35.688Z,0.30
2023-01-19T09:08:05.478Z,0.30
2023-01-19T09:10:36.080Z,0.30
2023-01-19T09:13:08.566Z,0.30
2023-01-19T09:15:37.852Z,0.40
2023-01-19T09:18:07.472Z,0.30
2023-01-19T09:20:36.306Z,0.30
2023-01-19T09:23:04.040Z,0.30
2023-01-19T09:25:31.625Z,0.40
2023-01-19T09:28:02.794Z,0.30
2023-01-19T09:30:29.621Z,0.30
2023-01-19T09:32:58.629Z,0.32
2023-01-19T09:35:26.299Z,0.30
2023-01-19T09:37:53.094Z,0.30
2023-01-19T09:40:20.945Z,0.30
2023-01-19T09:42:53.513Z,0.30
2023-01-19T09:45:31.509Z,0.20
2023-01-19T09:48:00.156Z,0.20
2023-01-19T09:50:36.876Z,0.30
2023-01-19T09:53:13.944Z,0.30
2023-01-19T09:55:42.157Z,0.30
2023-01-19T09:58:18.494Z,0.30
2023-01-19T10:00:56.575Z,0.20
2023-01-19T10:03:24.174Z,0.30
2023-01-19T10:06:01.446Z,0.30
2023-01-19T10:08:45.721Z,0.20
2023-01-19T10:11:57.553Z,0.20
2023-01-19T10:14:34.472Z,0.30
2023-01-19T10:17:15.015Z,0.20
2023-01-19T10:19:47.587Z,0.20
2023-01-19T10:22:26.871Z,0.30
2023-01-19T10:24:56.558Z,0.30
2023-01-19T10:27:28.479Z,0.30
2023-01-19T10:29:56.695Z,0.20
2023-01-19T10:32:41.280Z,0.30
2023-01-19T10:35:24.806Z,0.30
2023-01-19T10:37:56.194Z,0.20
2023-01-19T10:40:32.240Z,0.20
2023-01-19T10:42:59.541Z,0.20
2023-01-19T10:45:31.119Z,0.30
2023-01-19T10:48:01.114Z,0.30
2023-01-19T10:50:33.340Z,0.20
2023-01-19T10:53:05.983Z,0.30
2023-01-19T10:55:38.297Z,0.20
2023-01-19T10:58:07.365Z,0.30
2023-01-19T11:00:38.564Z,0.30
2023-01-19T11:03:31.368Z,0.30
2023-01-19T11:06:19.486Z,0.30
2023-01-19T11:08:48.561Z,0.20
2023-01-19T11:11:15.232Z,0.30
2023-01-19T11:13:43.054Z,0.25
2023-01-19T11:16:25.139Z,0.30
2023-01-19T11:18:53.593Z,0.30
2023-01-19T11:21:25.955Z,0.30
2023-01-19T11:24:14.934Z,0.20
2023-01-19T11:26:50.400Z,0.30
2023-01-19T11:29:20.930Z,0.20
2023-01-19T11:31:47.988Z,0.20
2023-01-19T11:34:36.884Z,0.20
2023-01-19T11:37:27.444Z,0.20
2023-01-19T11:39:58.100Z,0.10
2023-01-19T11:42:26.807Z,0.20
2023-01-19T11:44:59.704Z,0.30
2023-01-19T11:47:41.256Z,0.20
2023-01-19T11:50:29.662Z,0.30
2023-01-19T11:53:20.481Z,0.20
2023-01-19T11:56:04.858Z,0.20
2023-01-19T11:58:36.731Z,0.20
2023-01-19T12:01:12.711Z,0.30
2023-01-19T12:04:14.356Z,0.20
2023-01-19T12:06:47.891Z,0.25
2023-01-19T12:09:25.174Z,0.20
2023-01-19T12:12:04.299Z,0.20
2023-01-19T12:14:43.726Z,0.30
2023-01-19T12:17:19.569Z,0.20
2023-01-19T12:19:55.251Z,0.30
2023-01-19T12:22:23.979Z,0.30
2023-01-19T12:25:00.558Z,0.20
2023-01-19T12:27:39.919Z,0.30
2023-01-19T12:30:16.220Z,0.30
2023-01-19T12:32:43.458Z,0.28
2023-01-19T12:35:47.585Z,0.30
2023-01-19T12:38:36.368Z,0.20
2023-01-19T12:41:17.283Z,0.22
2023-01-19T12:43:44.090Z,0.30
2023-01-19T12:46:27.872Z,0.20
2023-01-19T12:48:55.348Z,0.20
2023-01-19T12:51:24.234Z,0.20
2023-01-19T12:53:56.798Z,0.20
2023-01-19T12:56:30.908Z,0.38
2023-01-19T12:58:57.882Z,0.20
2023-01-19T13:01:27.003Z,0.20
2023-01-19T13:04:03.924Z,0.20
2023-01-19T13:06:49.096Z,0.20
2023-01-19T13:09:38.554Z,0.20
2023-01-19T13:12:14.201Z,0.20
2023-01-19T13:14:42.686Z,0.20
2023-01-19T13:17:28.515Z,0.10
2023-01-19T13:20:01.629Z,0.20
2023-01-19T13:22:46.650Z,0.20
2023-01-19T13:25:40.233Z,0.20
2023-01-19T13:28:10.099Z,0.20
2023-01-19T13:30:39.876Z,0.20
2023-01-19T13:33:19.206Z,0.20
2023-01-19T13:35:58.799Z,0.20
2023-01-19T13:38:27.917Z,0.10
2023-01-19T13:40:56.413Z,0.20
2023-01-19T13:43:29.265Z,0.20
2023-01-19T13:45:56.416Z,0.20
2023-01-19T13:48:24.877Z,0.20
2023-01-19T13:51:00.527Z,0.20
2023-01-19T13:53:27.550Z,0.20
2023-01-19T13:56:20.677Z,0.20
2023-01-19T13:59:02.435Z,0.20
2023-01-19T14:01:30.402Z,0.30
2023-01-19T14:03:57.312Z,0.25
2023-01-19T14:06:36.548Z,0.20
2023-01-19T14:09:29.339Z,0.20
2023-01-19T14:12:17.667Z,0.20
2023-01-19T14:14:49.592Z,0.20
2023-01-19T14:17:36.671Z,0.20
2023-01-19T14:20:05.549Z,0.20
2023-01-19T14:22:46.896Z,0.10
2023-01-19T14:25:33.309Z,0.30
2023-01-19T14:28:43.616Z,0.25
2023-01-19T14:31:25.120Z,0.20
2023-01-19T14:33:54.352Z,0.20
2023-01-19T14:36:28.791Z,0.20
2023-01-19T14:38:59.315Z,0.20
2023-01-19T14:41:43.936Z,0.20
2023-01-19T14:44:15.525Z,0.20
2023-01-19T14:46:48.059Z,0.20
2023-01-19T14:49:20.501Z,0.20
2023-01-19T14:51:49.141Z,0.20
2023-01-19T14:54:19.176Z,0.20
2023-01-19T14:56:45.889Z,0.20
2023-01-19T14:59:12.666Z,0.30
2023-01-19T15:01:39.575Z,0.20
2023-01-19T15:04:06.394Z,0.20
2023-01-19T15:06:41.592Z,0.20
2023-01-19T15:09:12.014Z,0.20
2023-01-19T15:11:39.380Z,0.20
2023-01-19T15:14:06.276Z,0.20
2023-01-19T15:16:34.420Z,0.10
2023-01-19T15:19:01.134Z,0.10
2023-01-19T15:21:27.851Z,0.20
2023-01-19T15:23:55.057Z,0.17
2023-01-19T15:26:24.125Z,0.20
2023-01-19T15:28:51.375Z,0.20
2023-01-19T15:31:23.373Z,0.10
2023-01-19T15:33:50.551Z,0.15
2023-01-19T15:36:20.088Z,0.30
2023-01-19T15:38:47.797Z,0.22
2023-01-19T15:41:23.832Z,0.20
2023-01-19T15:43:51.041Z,0.30
2023-01-19T15:46:20.684Z,0.20
2023-01-19T15:48:48.028Z,0.20
2023-01-19T15:51:16.731Z,0.20
2023-01-19T15:53:43.892Z,0.20
2023-01-19T15:56:31.344Z,0.20
2023-01-19T15:58:58.904Z,0.20
2023-01-19T16:01:32.435Z,0.20
2023-01-19T16:06:28.383Z,0.20
2023-01-19T16:08:59.787Z,0.20
2023-01-19T16:11:31.378Z,0.20
2023-01-19T16:13:58.764Z,0.30
2023-01-19T16:16:28.108Z,0.20
2023-01-19T16:18:55.519Z,0.20
2023-01-19T16:21:22.585Z,0.20
2023-01-19T16:23:49.586Z,0.20
2023-01-19T16:26:42.597Z,0.30
2023-01-19T16:29:10.937Z,0.20
2023-01-19T16:31:42.739Z,0.20
2023-01-19T16:34:09.970Z,0.20
2023-01-19T16:36:38.389Z,0.20
2023-01-19T16:39:07.527Z,0.30
2023-01-19T16:41:34.795Z,0.20
2023-01-19T16:44:02.103Z,0.30
2023-01-19T16:46:37.437Z,0.20
2023-01-19T16:49:06.965Z,0.30
2023-01-19T16:51:33.799Z,0.20
2023-01-19T16:54:00.453Z,0.20
2023-01-19T16:56:27.622Z,0.30
2023-01-19T16:58:55.243Z,0.20
2023-01-19T17:01:22.774Z,0.30
2023-01-19T17:03:49.624Z,0.30
2023-01-19T17:06:18.750Z,0.20
2023-01-19T17:08:45.567Z,0.20
2023-01-19T17:11:19.560Z,0.30
2023-01-19T17:13:50.248Z,0.30
2023-01-19T17:16:17.079Z,0.30
2023-01-19T17:18:43.732Z,0.30
2023-01-19T17:21:10.750Z,0.30
2023-01-19T17:23:42.854Z,0.30
2023-01-19T17:26:10.443Z,0.30
2023-01-19T17:28:37.794Z,0.30
2023-01-19T17:31:11.103Z,0.30
2023-01-19T17:33:38.532Z,0.20
2023-01-19T17:36:08.253Z,0.30
2023-01-19T17:38:35.997Z,0.35
2023-01-19T17:41:02.867Z,0.30
2023-01-19T17:43:29.786Z,0.20
2023-01-19T17:45:56.615Z,0.30
2023-01-19T17:48:23.446Z,0.30
2023-01-19T17:50:50.229Z,0.20
2023-01-19T17:53:17.156Z,0.30
2023-01-19T17:55:43.862Z,0.30
2023-01-19T17:58:10.542Z,0.30
2023-01-19T18:00:37.261Z,0.30
2023-01-19T18:03:04.075Z,0.20
2023-01-19T18:05:30.881Z,0.30
2023-01-19T18:07:57.618Z,0.30
2023-01-19T18:10:24.236Z,0.30
2023-01-19T18:12:50.892Z,0.20
2023-01-19T18:15:17.667Z,0.30
2023-01-19T18:17:44.368Z,0.30
2023-01-19T18:20:12.034Z,0.30
2023-01-19T18:22:38.903Z,0.20
2023-01-19T18:25:06.935Z,0.30
2023-01-19T18:27:33.711Z,0.30
2023-01-19T18:30:00.561Z,0.30
2023-01-19T18:32:27.380Z,0.30
2023-01-19T18:34:54.311Z,0.30
2023-01-19T18:37:21.071Z,0.30
2023-01-19T18:39:47.885Z,0.30
2023-01-19T18:42:14.576Z,0.30
2023-01-19T18:44:41.404Z,0.30
2023-01-19T18:47:08.203Z,0.30
2023-01-19T18:49:34.821Z,0.30
2023-01-19T18:52:01.508Z,0.40
2023-01-19T18:54:28.258Z,0.30
2023-01-19T18:56:54.884Z,0.30
2023-01-19T18:59:21.546Z,0.40
2023-01-19T19:01:48.362Z,0.30
2023-01-19T19:04:15.285Z,0.22
2023-01-19T19:06:41.919Z,0.47
2023-01-19T19:09:09.327Z,0.30
2023-01-19T19:11:36.668Z,0.30
2023-01-19T19:14:03.456Z,0.30
2023-01-19T19:16:34.092Z,0.30
2023-01-19T19:19:02.110Z,0.30
2023-01-19T19:21:28.830Z,0.30
2023-01-19T19:23:57.572Z,0.30
2023-01-19T19:26:25.488Z,0.30
2023-01-19T19:28:52.577Z,0.30
2023-01-19T19:31:21.098Z,0.30
2023-01-19T19:33:48.993Z,0.30
2023-01-19T19:36:15.732Z,0.40
2023-01-19T19:38:44.472Z,0.40
2023-01-19T19:41:19.888Z,0.30
2023-01-19T19:43:46.661Z,0.30
2023-01-19T19:46:15.741Z,0.40
2023-01-19T19:48:42.498Z,0.30
2023-01-19T19:51:18.451Z,0.40
2023-01-19T19:53:45.874Z,0.40
2023-01-19T19:56:13.450Z,0.30
2023-01-19T19:58:42.084Z,0.40
2023-01-19T20:01:20.403Z,0.30
2023-01-19T20:03:47.531Z,0.32
2023-01-19T20:06:22.733Z,0.30
2023-01-19T20:08:50.459Z,0.30
2023-01-19T20:11:20.452Z,0.40
2023-01-19T20:13:47.873Z,0.30
2023-01-19T20:16:20.653Z,0.40
2023-01-19T20:18:51.339Z,0.40
2023-01-19T20:21:21.620Z,0.30
2023-01-19T20:23:49.677Z,0.30
2023-01-19T20:26:18.883Z,0.40
2023-01-19T20:28:46.120Z,0.40
2023-01-19T20:31:17.013Z,0.40
2023-01-19T20:33:44.110Z,0.47
2023-01-19T20:36:11.704Z,0.47
2023-01-19T20:38:39.940Z,0.40
2023-01-19T20:41:08.146Z,0.40
2023-01-19T20:43:35.590Z,0.38
2023-01-19T20:46:03.027Z,0.40
2023-01-19T20:48:30.239Z,0.40
2023-01-19T20:51:00.471Z,0.30
2023-01-19T20:53:27.997Z,0.32
2023-01-19T20:55:54.919Z,0.40
2023-01-19T20:58:21.830Z,0.30
2023-01-19T21:00:48.821Z,0.45
2023-01-19T21:03:15.613Z,0.40
2023-01-19T21:05:42.325Z,0.40
2023-01-19T21:08:10.159Z,0.40
2023-01-19T21:10:36.985Z,0.40
2023-01-19T21:13:03.731Z,0.40
2023-01-19T21:15:30.430Z,0.40
2023-01-19T21:17:57.495Z,0.40
2023-01-19T21:20:24.337Z,0.40
2023-01-19T21:22:52.045Z,0.40
2023-01-19T21:25:18.689Z,0.40
2023-01-19T21:27:45.378Z,0.40
2023-01-19T21:30:12.158Z,0.40
2023-01-19T21:32:38.992Z,0.40
2023-01-19T21:35:06.240Z,0.30
2023-01-19T21:37:32.934Z,0.40
2023-01-19T21:39:59.616Z,0.47
2023-01-19T21:42:26.240Z,0.40
2023-01-19T21:44:52.933Z,0.40
2023-01-19T21:47:19.650Z,0.40
2023-01-19T21:49:46.325Z,0.50
2023-01-19T21:52:13.133Z,0.43
2023-01-19T21:54:39.853Z,0.40
2023-01-19T21:57:06.629Z,0.40
2023-01-19T21:59:33.432Z,0.43
2023-01-19T22:02:00.449Z,0.40
2023-01-19T22:04:27.568Z,0.40
2023-01-19T22:06:54.296Z,0.40
2023-01-19T22:09:20.878Z,0.40
2023-01-19T22:11:47.535Z,0.40
2023-01-19T22:14:14.137Z,0.40
2023-01-19T22:16:40.785Z,0.40
2023-01-19T22:19:08.319Z,0.40
2023-01-19T22:21:35.961Z,0.40
2023-01-19T22:24:04.149Z,0.40
2023-01-19T22:26:34.227Z,0.30
2023-01-19T22:29:02.116Z,0.47
2023-01-19T22:31:29.592Z,0.40
2023-01-19T22:33:57.171Z,0.40
2023-01-19T22:36:34.125Z,0.40
2023-01-19T22:39:06.567Z,0.50
2023-01-19T22:41:34.851Z,0.40
2023-01-19T22:44:07.208Z,0.40
2023-01-19T22:46:35.771Z,0.40
2023-01-19T22:49:02.802Z,0.43
2023-01-19T22:51:30.730Z,0.40
2023-01-19T22:53:57.811Z,0.40
2023-01-19T22:56:26.882Z,0.40
2023-01-19T22:58:54.246Z,0.45
2023-01-19T23:01:26.274Z,0.43
2023-01-19T23:03:54.276Z,0.40
2023-01-19T23:06:23.203Z,0.50
2023-01-19T23:08:50.634Z,0.40
2023-01-19T23:11:19.979Z,0.40
2023-01-19T23:13:47.351Z,0.40
2023-01-19T23:16:14.635Z,0.40
2023-01-19T23:18:42.051Z,0.40
2023-01-19T23:21:14.473Z,0.40
2023-01-19T23:23:41.312Z,0.40
2023-01-19T23:26:10.935Z,0.40
2023-01-19T23:28:39.206Z,0.35
2023-01-19T23:31:24.752Z,0.40
2023-01-19T23:33:56.261Z,0.40
2023-01-19T23:36:24.583Z,0.40
2023-01-19T23:38:56.315Z,0.40
2023-01-19T23:41:24.396Z,0.40
2023-01-19T23:43:51.553Z,0.40
2023-01-19T23:46:19.369Z,0.43
2023-01-19T23:48:46.787Z,0.47
2023-01-19T23:51:20.314Z,0.40
2023-01-19T23:56:20.092Z,0.40
2023-01-19T23:58:55.086Z,0.30
